createdAt,value
2019-05-19T00:02:17.891Z,121.90
2019-05-19T00:04:44.080Z,125.57
2019-05-19T00:07:12.379Z,123.83
2019-05-19T00:09:38.550Z,121.17
2019-05-19T00:12:04.930Z,129.27
2019-05-19T00:14:31.258Z,121.73
2019-05-19T00:16:57.588Z,117.03
2019-05-19T00:19:26.762Z,116.07
2019-05-19T00:21:51.770Z,118.27
2019-05-19T00:24:18.045Z,124.27
2019-05-19T00:26:44.213Z,119.53
2019-05-19T00:29:10.726Z,121.00
2019-05-19T00:31:36.900Z,124.07
2019-05-19T00:34:03.080Z,118.27
2019-05-19T00:36:29.301Z,126.47
2019-05-19T00:38:55.473Z,126.27
2019-05-19T00:41:21.658Z,135.20
2019-05-19T00:43:48.933Z,124.97
2019-05-19T00:46:15.212Z,133.17
2019-05-19T00:48:41.494Z,123.83
2019-05-19T00:51:07.694Z,128.57
2019-05-19T00:53:33.867Z,119.30
2019-05-19T00:56:00.538Z,126.67
2019-05-19T00:58:26.837Z,141.33
2019-05-19T01:00:53.017Z,122.43
2019-05-19T01:03:19.391Z,123.13
2019-05-19T01:05:45.603Z,130.97
2019-05-19T01:08:12.022Z,121.20
2019-05-19T01:10:38.220Z,132.37
2019-05-19T01:13:04.402Z,113.33
2019-05-19T01:15:30.660Z,111.47
2019-05-19T01:17:56.835Z,114.83
2019-05-19T01:20:23.035Z,115.73
2019-05-19T01:22:49.213Z,127.27
2019-05-19T01:25:15.390Z,121.37
2019-05-19T01:27:41.793Z,110.03
2019-05-19T01:30:08.968Z,120.40
2019-05-19T01:32:35.151Z,121.07
2019-05-19T01:35:01.402Z,132.97
2019-05-19T01:37:27.725Z,118.00
2019-05-19T01:39:53.969Z,139.53
2019-05-19T01:42:20.383Z,133.70
2019-05-19T01:44:46.834Z,123.23
2019-05-19T01:47:13.021Z,129.23
2019-05-19T01:49:39.218Z,129.23
2019-05-19T01:52:05.394Z,140.67
2019-05-19T01:54:31.566Z,131.03
2019-05-19T01:56:57.770Z,125.90
2019-05-19T01:59:23.954Z,127.50
2019-05-19T02:01:50.423Z,116.77
2019-05-19T02:04:16.734Z,127.33
2019-05-19T02:06:43.007Z,126.47
2019-05-19T02:09:09.178Z,129.77
2019-05-19T02:11:35.415Z,129.07
2019-05-19T02:14:02.179Z,124.27
2019-05-19T02:16:28.390Z,132.47
2019-05-19T02:18:54.975Z,134.07
2019-05-19T02:21:21.152Z,126.90
2019-05-19T02:23:47.333Z,121.90
2019-05-19T02:26:13.535Z,131.03
2019-05-19T02:28:39.706Z,125.87
2019-05-19T02:31:05.885Z,127.73
2019-05-19T02:33:35.649Z,129.13
2019-05-19T02:36:00.068Z,121.27
2019-05-19T02:38:26.242Z,121.17
2019-05-19T02:40:54.675Z,132.60
2019-05-19T02:43:21.356Z,117.67
2019-05-19T02:45:52.469Z,130.00
2019-05-19T02:48:18.765Z,120.67
2019-05-19T02:50:52.130Z,130.70
2019-05-19T02:53:13.035Z,134.63
2019-05-19T02:55:39.344Z,132.20
2019-05-19T02:58:05.629Z,124.40
2019-05-19T03:00:34.691Z,115.43
2019-05-19T03:03:01.000Z,116.57
2019-05-19T03:05:27.207Z,129.67
2019-05-19T03:07:53.382Z,126.00
2019-05-19T03:10:19.587Z,122.17
2019-05-19T03:12:45.765Z,142.67
2019-05-19T03:15:11.937Z,127.30
2019-05-19T03:17:38.138Z,133.83
2019-05-19T03:20:04.955Z,138.70
2019-05-19T03:22:31.084Z,139.67
2019-05-19T03:24:57.531Z,133.87
2019-05-19T03:27:23.706Z,131.33
2019-05-19T03:29:51.779Z,134.27
2019-05-19T03:32:19.913Z,130.47
2019-05-19T03:34:46.156Z,129.87
2019-05-19T03:37:12.344Z,131.80
2019-05-19T03:39:38.545Z,128.40
2019-05-19T03:42:04.719Z,123.40
2019-05-19T03:44:30.929Z,130.23
2019-05-19T03:46:57.379Z,141.83
2019-05-19T03:49:23.548Z,120.60
2019-05-19T03:51:49.727Z,127.80
2019-05-19T03:54:15.957Z,133.43
2019-05-19T03:56:42.130Z,126.33
2019-05-19T03:59:08.301Z,129.53
2019-05-19T04:01:34.494Z,126.67
2019-05-19T04:04:00.674Z,132.30
2019-05-19T04:06:26.860Z,154.70
2019-05-19T04:08:53.314Z,169.03
2019-05-19T04:11:19.492Z,176.07
2019-05-19T04:13:45.767Z,170.57
2019-05-19T04:16:11.967Z,177.63
2019-05-19T04:18:38.141Z,183.43
2019-05-19T04:21:04.315Z,176.67
2019-05-19T04:23:30.882Z,205.17
2019-05-19T04:25:57.255Z,192.10
2019-05-19T04:28:23.433Z,207.17
2019-05-19T04:30:49.778Z,217.23
2019-05-19T04:33:15.948Z,206.83
2019-05-19T04:35:42.157Z,213.50
2019-05-19T04:38:08.323Z,210.80
2019-05-19T04:40:34.494Z,222.80
2019-05-19T04:43:00.837Z,207.37
2019-05-19T04:45:27.137Z,230.73
2019-05-19T04:47:55.178Z,236.53
2019-05-19T04:50:21.454Z,222.63
2019-05-19T04:52:47.862Z,214.00
2019-05-19T04:55:14.030Z,215.90
2019-05-19T04:57:40.220Z,215.63
2019-05-19T05:00:06.647Z,218.33
2019-05-19T05:02:32.999Z,229.17
2019-05-19T05:04:59.224Z,210.70
2019-05-19T05:07:25.531Z,193.07
2019-05-19T05:09:51.710Z,195.13
2019-05-19T05:12:17.892Z,186.33
2019-05-19T05:14:44.090Z,177.37
2019-05-19T05:17:10.283Z,175.23
2019-05-19T05:19:36.574Z,185.00
2019-05-19T05:22:02.711Z,178.67
2019-05-19T05:24:28.898Z,179.60
2019-05-19T05:26:55.054Z,189.83
2019-05-19T05:29:21.260Z,195.30
2019-05-19T05:31:47.431Z,188.43
2019-05-19T05:34:13.707Z,188.67
2019-05-19T05:36:40.179Z,174.47
2019-05-19T05:39:06.350Z,191.70
2019-05-19T05:41:32.530Z,181.47
2019-05-19T05:43:58.734Z,172.10
2019-05-19T05:46:24.981Z,172.97
2019-05-19T05:48:51.463Z,171.30
2019-05-19T05:51:17.787Z,170.00
2019-05-19T05:53:43.958Z,179.80
2019-05-19T05:56:10.162Z,192.07
2019-05-19T05:58:36.359Z,181.17
2019-05-19T06:01:02.630Z,166.80
2019-05-19T06:03:28.880Z,170.70
2019-05-19T06:05:55.029Z,162.17
2019-05-19T06:08:21.202Z,156.00
2019-05-19T06:10:47.568Z,159.07
2019-05-19T06:13:13.893Z,137.97
2019-05-19T06:15:40.108Z,145.37
2019-05-19T06:18:06.758Z,129.53
2019-05-19T06:20:32.964Z,144.60
2019-05-19T06:22:59.300Z,148.37
2019-05-19T06:25:26.072Z,140.63
2019-05-19T06:27:52.458Z,159.20
2019-05-19T06:30:18.671Z,139.93
2019-05-19T06:32:46.815Z,154.20
2019-05-19T06:35:13.531Z,144.70
2019-05-19T06:37:39.794Z,137.60
2019-05-19T06:40:06.805Z,144.77
2019-05-19T06:42:32.979Z,149.83
2019-05-19T06:44:59.262Z,143.57
2019-05-19T06:47:25.530Z,131.37
2019-05-19T06:49:52.229Z,134.20
2019-05-19T06:52:18.405Z,136.63
2019-05-19T06:54:44.683Z,153.33
2019-05-19T06:57:10.867Z,153.50
2019-05-19T06:59:37.047Z,164.70
2019-05-19T07:02:03.227Z,162.23
2019-05-19T07:04:29.441Z,166.43
2019-05-19T07:06:55.931Z,170.17
2019-05-19T07:09:22.174Z,165.53
2019-05-19T07:11:48.418Z,166.57
2019-05-19T07:14:14.587Z,168.07
2019-05-19T07:16:40.762Z,156.77
2019-05-19T07:19:07.064Z,153.17
2019-05-19T07:21:33.242Z,170.33
2019-05-19T07:23:59.425Z,160.63
2019-05-19T07:26:25.672Z,166.57
2019-05-19T07:28:51.822Z,165.53
2019-05-19T07:31:17.996Z,165.90
2019-05-19T07:33:44.337Z,155.23
2019-05-19T07:36:10.507Z,153.60
2019-05-19T07:38:36.700Z,156.57
2019-05-19T07:41:02.886Z,154.17
2019-05-19T07:43:29.058Z,149.70
2019-05-19T07:45:55.233Z,144.53
2019-05-19T07:48:21.580Z,144.90
2019-05-19T07:50:48.722Z,160.33
2019-05-19T07:53:14.922Z,146.43
2019-05-19T07:55:41.202Z,129.43
2019-05-19T07:58:07.374Z,131.63
2019-05-19T08:00:33.554Z,110.17
2019-05-19T08:02:59.757Z,108.30
2019-05-19T08:05:25.933Z,114.37
2019-05-19T08:07:52.106Z,106.70
2019-05-19T08:10:18.389Z,92.10
2019-05-19T08:12:44.693Z,86.73
2019-05-19T08:15:10.858Z,84.50
2019-05-19T08:17:37.169Z,84.27
2019-05-19T08:20:06.234Z,85.07
2019-05-19T08:22:32.413Z,90.93
2019-05-19T08:24:58.617Z,96.97
2019-05-19T08:27:24.790Z,89.97
2019-05-19T08:29:51.068Z,88.50
2019-05-19T08:32:17.283Z,92.37
2019-05-19T08:34:43.656Z,94.00
2019-05-19T08:37:10.108Z,96.33
2019-05-19T08:39:36.375Z,91.73
2019-05-19T08:42:02.651Z,101.73
2019-05-19T08:44:28.834Z,87.40
2019-05-19T08:46:55.231Z,88.87
2019-05-19T08:49:21.611Z,94.53
2019-05-19T08:51:49.297Z,87.50
2019-05-19T08:54:18.825Z,79.93
2019-05-19T08:56:43.476Z,79.80
2019-05-19T08:59:09.651Z,75.97
2019-05-19T09:01:37.967Z,82.33
2019-05-19T09:04:04.146Z,79.53
2019-05-19T09:06:30.530Z,83.30
2019-05-19T09:08:56.854Z,88.13
2019-05-19T09:11:23.027Z,90.87
2019-05-19T09:13:49.202Z,103.53
2019-05-19T09:16:15.496Z,92.17
2019-05-19T09:18:41.675Z,89.97
2019-05-19T09:21:07.851Z,88.87
2019-05-19T09:23:34.055Z,89.80
2019-05-19T09:26:00.225Z,83.57
2019-05-19T09:28:26.603Z,85.40
2019-05-19T09:30:52.811Z,77.20
2019-05-19T09:33:18.991Z,89.90
2019-05-19T09:35:45.176Z,91.93
2019-05-19T09:38:11.385Z,95.67
2019-05-19T09:40:37.563Z,82.13
2019-05-19T09:43:03.820Z,87.90
2019-05-19T09:45:30.137Z,83.83
2019-05-19T09:47:56.306Z,84.60
2019-05-19T09:50:22.481Z,80.07
2019-05-19T09:52:49.465Z,79.07
2019-05-19T09:55:15.641Z,69.60
2019-05-19T09:57:42.014Z,83.80
2019-05-19T10:00:09.115Z,76.67
2019-05-19T10:02:35.295Z,70.80
2019-05-19T10:05:03.075Z,75.57
2019-05-19T10:07:29.362Z,78.20
2019-05-19T10:09:57.544Z,65.37
2019-05-19T10:12:23.715Z,70.83
2019-05-19T10:14:50.122Z,78.27
2019-05-19T10:17:16.394Z,86.47
2019-05-19T10:19:42.578Z,90.93
2019-05-19T10:22:08.787Z,77.80
2019-05-19T10:24:36.179Z,87.17
2019-05-19T10:27:02.474Z,84.13
2019-05-19T10:29:28.703Z,87.50
2019-05-19T10:31:55.144Z,86.33
2019-05-19T10:34:21.533Z,87.93
2019-05-19T10:36:47.724Z,91.83
2019-05-19T10:39:14.034Z,84.33
2019-05-19T10:41:40.175Z,76.27
2019-05-19T10:44:06.592Z,80.27
2019-05-19T10:46:32.822Z,72.93
2019-05-19T10:48:58.991Z,77.77
2019-05-19T10:51:25.295Z,76.57
2019-05-19T10:53:52.490Z,66.53
2019-05-19T10:56:19.217Z,75.73
2019-05-19T10:58:45.610Z,68.97
2019-05-19T11:01:11.790Z,75.57
2019-05-19T11:03:37.970Z,73.70
2019-05-19T11:06:04.595Z,68.87
2019-05-19T11:08:30.878Z,69.73
2019-05-19T11:10:57.661Z,76.53
2019-05-19T11:13:23.878Z,71.67
2019-05-19T11:15:50.157Z,71.50
2019-05-19T11:18:16.342Z,68.93
2019-05-19T11:20:42.898Z,73.97
2019-05-19T11:23:09.075Z,70.63
2019-05-19T11:25:35.468Z,76.53
2019-05-19T11:28:04.435Z,75.00
2019-05-19T11:30:30.616Z,71.23
2019-05-19T11:32:56.803Z,77.00
2019-05-19T11:35:22.995Z,71.70
2019-05-19T11:37:49.341Z,76.30
2019-05-19T11:40:15.693Z,70.80
2019-05-19T11:42:42.000Z,69.83
2019-05-19T11:45:08.160Z,71.33
2019-05-19T11:47:34.343Z,73.10
2019-05-19T11:50:00.535Z,69.10
2019-05-19T11:52:26.714Z,73.53
2019-05-19T11:54:53.282Z,74.73
2019-05-19T11:57:19.605Z,69.47
2019-05-19T11:59:45.747Z,73.80
2019-05-19T12:02:12.040Z,68.97
2019-05-19T12:04:38.478Z,73.77
2019-05-19T12:07:04.660Z,71.97
2019-05-19T12:09:31.030Z,72.77
2019-05-19T12:11:57.357Z,71.60
2019-05-19T12:14:23.628Z,70.53
2019-05-19T12:16:49.962Z,66.90
2019-05-19T12:19:16.242Z,62.13
2019-05-19T12:21:42.594Z,54.03
2019-05-19T12:24:08.862Z,53.83
2019-05-19T12:26:35.071Z,59.83
2019-05-19T12:29:01.747Z,64.83
2019-05-19T12:31:28.032Z,54.70
2019-05-19T12:33:54.230Z,60.93
2019-05-19T12:36:20.394Z,62.33
2019-05-19T12:38:46.670Z,59.03
2019-05-19T12:41:13.028Z,58.23
2019-05-19T12:43:39.197Z,52.67
2019-05-19T12:46:15.787Z,61.37
2019-05-19T12:48:33.714Z,58.03
2019-05-19T12:50:59.976Z,65.10
2019-05-19T12:53:26.241Z,64.00
2019-05-19T12:55:53.710Z,68.43
2019-05-19T12:58:19.888Z,74.40
2019-05-19T13:00:46.063Z,75.80
2019-05-19T13:03:12.276Z,72.30
2019-05-19T13:05:38.460Z,71.77
2019-05-19T13:08:04.635Z,70.53
2019-05-19T13:10:30.947Z,74.77
2019-05-19T13:12:57.118Z,75.30
2019-05-19T13:15:23.292Z,78.23
2019-05-19T13:17:49.723Z,81.80
2019-05-19T13:20:16.359Z,84.60
2019-05-19T13:22:42.587Z,93.80
2019-05-19T13:25:08.795Z,95.37
2019-05-19T13:27:35.127Z,105.10
2019-05-19T13:30:01.243Z,91.13
2019-05-19T13:32:27.450Z,86.47
2019-05-19T13:34:53.615Z,87.57
2019-05-19T13:37:19.792Z,87.03
2019-05-19T13:39:46.034Z,88.73
2019-05-19T13:42:12.308Z,83.23
2019-05-19T13:44:38.485Z,80.20
2019-05-19T13:47:04.688Z,76.30
2019-05-19T13:49:30.854Z,75.10
2019-05-19T13:51:57.025Z,63.37
2019-05-19T13:54:23.228Z,68.97
2019-05-19T13:56:50.810Z,70.37
2019-05-19T13:59:16.986Z,67.73
2019-05-19T14:01:43.347Z,64.90
2019-05-19T14:04:09.527Z,66.97
2019-05-19T14:06:35.710Z,73.10
2019-05-19T14:09:02.536Z,69.70
2019-05-19T14:11:28.686Z,55.77
2019-05-19T14:13:54.911Z,61.13
2019-05-19T14:16:21.230Z,58.43
2019-05-19T14:18:47.514Z,65.10
2019-05-19T14:21:13.678Z,61.53
2019-05-19T14:23:39.916Z,61.00
2019-05-19T14:26:06.094Z,59.50
2019-05-19T14:28:32.266Z,60.83
2019-05-19T14:30:59.078Z,56.40
2019-05-19T14:33:25.433Z,54.03
2019-05-19T14:35:51.627Z,50.97
2019-05-19T14:38:18.029Z,49.57
2019-05-19T14:40:44.195Z,51.40
2019-05-19T14:43:10.373Z,43.77
2019-05-19T14:45:36.879Z,44.50
2019-05-19T14:48:03.166Z,41.93
2019-05-19T14:50:29.342Z,43.27
2019-05-19T14:52:55.646Z,38.63
2019-05-19T14:55:21.916Z,37.67
2019-05-19T14:57:48.862Z,36.83
2019-05-19T15:00:15.379Z,38.50
2019-05-19T15:02:41.752Z,41.33
2019-05-19T15:05:08.024Z,31.70
2019-05-19T15:07:34.383Z,38.17
2019-05-19T15:10:00.590Z,37.60
2019-05-19T15:12:26.894Z,35.03
2019-05-19T15:14:53.187Z,38.40
2019-05-19T15:17:19.499Z,33.23
2019-05-19T15:19:45.685Z,31.80
2019-05-19T15:22:12.147Z,37.43
2019-05-19T15:24:38.384Z,30.70
2019-05-19T15:27:04.547Z,30.83
2019-05-19T15:29:30.743Z,30.87
2019-05-19T15:31:56.923Z,28.93
2019-05-19T15:34:23.094Z,41.27
2019-05-19T15:36:49.423Z,32.70
2019-05-19T15:39:15.598Z,34.37
2019-05-19T15:41:41.776Z,27.43
2019-05-19T15:44:07.983Z,31.77
2019-05-19T15:46:34.248Z,30.47
2019-05-19T15:49:00.752Z,28.93
2019-05-19T15:51:29.143Z,27.13
2019-05-19T15:53:55.148Z,26.07
2019-05-19T15:56:21.310Z,28.20
2019-05-19T15:58:48.884Z,26.43
2019-05-19T16:01:15.265Z,26.90
2019-05-19T16:03:41.439Z,24.50
2019-05-19T16:06:07.740Z,23.00
2019-05-19T16:08:33.948Z,30.23
2019-05-19T16:11:00.317Z,22.60
2019-05-19T16:13:26.516Z,21.23
2019-05-19T16:15:52.689Z,20.17
2019-05-19T16:18:19.068Z,23.20
2019-05-19T16:20:45.393Z,24.00
2019-05-19T16:23:11.574Z,17.57
2019-05-19T16:25:37.748Z,19.00
2019-05-19T16:28:03.953Z,18.00
2019-05-19T16:30:30.139Z,20.13
2019-05-19T16:32:56.315Z,17.80
2019-05-19T16:35:22.606Z,20.70
2019-05-19T16:37:48.916Z,18.00
2019-05-19T16:40:15.282Z,23.00
2019-05-19T16:42:41.492Z,17.30
2019-05-19T16:45:07.868Z,20.57
2019-05-19T16:47:34.035Z,18.27
2019-05-19T16:50:00.374Z,23.80
2019-05-19T16:52:26.715Z,16.57
2019-05-19T16:54:54.790Z,20.10
2019-05-19T16:57:21.398Z,23.90
2019-05-19T16:59:48.434Z,26.00
2019-05-19T17:02:14.706Z,23.20
2019-05-19T17:04:41.019Z,32.23
2019-05-19T17:07:07.198Z,18.37
2019-05-19T17:09:33.742Z,22.77
2019-05-19T17:12:00.076Z,25.90
2019-05-19T17:14:26.453Z,23.13
2019-05-19T17:16:52.618Z,25.47
2019-05-19T17:19:18.826Z,24.07
2019-05-19T17:21:45.088Z,27.47
2019-05-19T17:24:11.314Z,24.83
2019-05-19T17:26:37.594Z,17.50
2019-05-19T17:29:03.761Z,24.20
2019-05-19T17:31:30.143Z,24.40
2019-05-19T17:33:56.351Z,19.57
2019-05-19T17:36:22.531Z,18.30
2019-05-19T17:38:48.785Z,14.10
2019-05-19T17:41:15.222Z,21.50
2019-05-19T17:43:41.387Z,19.37
2019-05-19T17:46:07.672Z,20.90
2019-05-19T17:48:34.125Z,16.97
2019-05-19T17:51:00.299Z,16.50
2019-05-19T17:53:26.496Z,27.47
2019-05-19T17:55:53.000Z,22.27
2019-05-19T17:58:19.176Z,21.10
2019-05-19T18:00:45.963Z,15.70
2019-05-19T18:03:12.411Z,20.47
2019-05-19T18:05:38.782Z,17.07
2019-05-19T18:08:05.169Z,24.23
2019-05-19T18:10:31.368Z,20.23
2019-05-19T18:12:57.538Z,24.90
2019-05-19T18:15:24.021Z,23.30
2019-05-19T18:17:50.230Z,29.20
2019-05-19T18:20:23.855Z,29.80
2019-05-19T18:22:44.392Z,26.57
2019-05-19T18:25:10.587Z,23.50
2019-05-19T18:27:36.762Z,26.70
2019-05-19T18:30:03.943Z,26.97
2019-05-19T18:32:30.155Z,29.97
2019-05-19T18:34:56.430Z,21.47
2019-05-19T18:37:22.669Z,30.00
2019-05-19T18:39:48.810Z,30.30
2019-05-19T18:42:14.974Z,29.73
2019-05-19T18:44:41.350Z,23.97
2019-05-19T18:47:07.562Z,25.73
2019-05-19T18:49:33.723Z,31.13
2019-05-19T18:51:59.890Z,22.17
2019-05-19T18:54:26.766Z,28.67
2019-05-19T18:56:52.996Z,24.03
2019-05-19T18:59:19.157Z,26.00
2019-05-19T19:01:45.970Z,21.83
2019-05-19T19:04:12.170Z,20.80
2019-05-19T19:06:38.365Z,29.00
2019-05-19T19:09:05.161Z,25.80
2019-05-19T19:11:31.334Z,25.93
2019-05-19T19:13:57.614Z,28.03
2019-05-19T19:16:23.810Z,26.37
2019-05-19T19:18:49.994Z,25.17
2019-05-19T19:21:16.171Z,23.40
2019-05-19T19:23:42.369Z,26.30
2019-05-19T19:26:08.842Z,25.03
2019-05-19T19:28:35.015Z,22.77
2019-05-19T19:31:01.522Z,23.87
2019-05-19T19:33:27.703Z,22.00
2019-05-19T19:35:53.883Z,29.43
2019-05-19T19:38:20.218Z,34.80
2019-05-19T19:40:46.400Z,30.00
2019-05-19T19:43:12.872Z,26.30
2019-05-19T19:45:39.078Z,20.97
2019-05-19T19:48:05.349Z,29.23
2019-05-19T19:50:32.228Z,23.33
2019-05-19T19:52:58.621Z,26.50
2019-05-19T19:55:24.991Z,26.67
2019-05-19T19:57:51.163Z,36.23
2019-05-19T20:00:21.383Z,24.83
2019-05-19T20:02:49.278Z,32.90
2019-05-19T20:05:15.450Z,30.80
2019-05-19T20:07:41.682Z,32.37
2019-05-19T20:10:07.964Z,26.30
2019-05-19T20:12:34.139Z,35.67
2019-05-19T20:15:00.546Z,27.77
2019-05-19T20:17:26.720Z,35.50
2019-05-19T20:19:52.906Z,30.93
2019-05-19T20:22:19.114Z,34.37
2019-05-19T20:24:45.293Z,35.77
2019-05-19T20:27:11.467Z,38.17
2019-05-19T20:29:37.770Z,49.90
2019-05-19T20:32:03.951Z,47.47
2019-05-19T20:34:30.120Z,47.17
2019-05-19T20:36:56.354Z,66.40
2019-05-19T20:39:22.534Z,65.20
2019-05-19T20:41:48.743Z,56.00
2019-05-19T20:44:15.336Z,75.73
2019-05-19T20:46:41.512Z,78.97
2019-05-19T20:49:07.701Z,77.20
2019-05-19T20:51:34.161Z,74.83
2019-05-19T20:54:00.415Z,92.80
2019-05-19T20:56:26.579Z,89.37
2019-05-19T20:58:52.778Z,93.90
2019-05-19T21:01:18.973Z,87.37
2019-05-19T21:03:46.699Z,105.17
2019-05-19T21:06:12.900Z,96.17
2019-05-19T21:08:39.071Z,94.13
2019-05-19T21:11:05.243Z,103.60
2019-05-19T21:13:31.508Z,120.43
2019-05-19T21:15:57.886Z,105.50
2019-05-19T21:18:24.065Z,112.83
2019-05-19T21:20:50.259Z,108.87
2019-05-19T21:23:16.438Z,113.90
2019-05-19T21:25:42.713Z,127.80
2019-05-19T21:28:08.919Z,131.57
2019-05-19T21:30:35.203Z,137.37
2019-05-19T21:33:01.375Z,122.83
2019-05-19T21:35:27.946Z,138.40
2019-05-19T21:37:54.230Z,150.57
2019-05-19T21:40:20.610Z,143.83
2019-05-19T21:42:47.063Z,133.00
2019-05-19T21:45:13.227Z,144.87
2019-05-19T21:47:39.492Z,130.90
2019-05-19T21:50:06.311Z,135.90
2019-05-19T21:52:32.498Z,142.33
2019-05-19T21:54:58.698Z,142.10
2019-05-19T21:57:24.893Z,142.70
2019-05-19T21:59:51.079Z,133.10
2019-05-19T22:02:17.360Z,124.90
2019-05-19T22:04:43.909Z,134.07
2019-05-19T22:07:11.919Z,155.90
2019-05-19T22:09:38.309Z,152.13
2019-05-19T22:12:04.718Z,145.93
2019-05-19T22:14:30.890Z,149.07
2019-05-19T22:16:57.162Z,150.03
2019-05-19T22:19:23.601Z,156.73
2019-05-19T22:21:49.755Z,148.13
2019-05-19T22:24:16.123Z,174.77
2019-05-19T22:26:42.538Z,167.67
2019-05-19T22:29:08.705Z,143.03
2019-05-19T22:31:36.813Z,155.60
2019-05-19T22:34:03.149Z,152.27
2019-05-19T22:36:29.530Z,154.00
2019-05-19T22:38:55.726Z,164.63
2019-05-19T22:41:21.926Z,171.87
2019-05-19T22:43:48.103Z,168.53
2019-05-19T22:46:14.277Z,163.23
2019-05-19T22:48:40.472Z,177.53
2019-05-19T22:51:06.648Z,182.90
2019-05-19T22:53:32.977Z,183.53
2019-05-19T22:55:59.309Z,159.70
2019-05-19T22:58:25.486Z,181.37
2019-05-19T23:00:51.760Z,177.97
2019-05-19T23:03:17.966Z,190.00
2019-05-19T23:05:45.767Z,188.40
2019-05-19T23:08:11.946Z,192.80
2019-05-19T23:10:38.358Z,208.63
2019-05-19T23:13:04.530Z,211.13
2019-05-19T23:15:30.706Z,193.53
2019-05-19T23:17:56.994Z,186.80
2019-05-19T23:20:23.290Z,208.70
2019-05-19T23:22:49.790Z,188.40
2019-05-19T23:25:16.207Z,179.77
2019-05-19T23:27:42.579Z,210.70
2019-05-19T23:30:08.966Z,219.33
2019-05-19T23:32:35.251Z,199.50
2019-05-19T23:35:03.138Z,210.27
2019-05-19T23:37:29.413Z,200.00
2019-05-19T23:39:55.670Z,200.97
2019-05-19T23:42:22.050Z,206.60
2019-05-19T23:44:48.218Z,213.90
2019-05-19T23:47:14.427Z,207.67
2019-05-19T23:49:40.824Z,217.03
2019-05-19T23:52:06.975Z,203.40
2019-05-19T23:54:33.181Z,173.03
2019-05-19T23:56:59.357Z,138.70
2019-05-19T23:59:25.529Z,169.57
